AirNav   Everest Fuels
 
 1036 users online  

7G8 Geauga County Airport
Middlefield, Ohio, USA

GOING TO MIDDLEFIELD?


FAA INFORMATION EFFECTIVE 25 FEBRUARY 2021

Location

FAA Identifier: 7G8
Lat/Long: 41-26-58.5440N 081-03-46.5640W
41-26.975733N 081-03.776067W
41.4495956,-81.0629344
(estimated)
Elevation: 1174.3 ft. / 357.9 m (surveyed)
Variation: 09W (2015)
From city: 1 mile SE of MIDDLEFIELD, OH
Time zone: UTC -5 (UTC -4 during Daylight Saving Time)
Zip code: 44062

Airport Operations

Airport use: Open to the public
Control tower: no
ARTCC: CLEVELAND CENTER
FSS: CLEVELAND FLIGHT SERVICE STATION
NOTAMs facility: CLE (NOTAM-D service available)
Attendance: MON-FRI 0900-1700 IREG
Pattern altitude: 2199.3 ft. MSL
Wind indicator: lighted
Segmented circle: no
Lights: ACTVT REIL RWY 11/29; PAPI RWY 29; MIRL RWY 11/29 - CTAF.
Beacon: white-green (lighted land airport)
Operates sunset to sunrise.

Airport Communications

CTAF/UNICOM: 123.0
CLEVELAND APPROACH: 125.35
CLEVELAND DEPARTURE: 125.35
WX AWOS-3 at POV (17 nm SW): 118.675 (330-298-9353)

Nearby radio navigation aids

VOR radial/distance  VOR name  Freq  Var
CXRr137/6.1CHARDON VOR/DME112.7005W
YNGr297/18.9YOUNGSTOWN VORTAC109.0005W
ACOr021/21.4AKRON VOR/DME114.4004W
JFNr222/23.4JEFFERSON VOR/DME115.2005W

 
NDB name  Hdg/Dist  Freq  Var  ID
LAKELAND143/19.926308WLQL .-.. --.- .-..
CASTLE320/38.827209WUCP ..- -.-. .--.

Airport Services

Fuel available: 100LL MOGAS
Parking: hangars and tiedowns
Airframe service: NONE
Powerplant service: NONE
Bottled oxygen: NONE
Bulk oxygen: NONE

Runway Information

Runway 11/29

Dimensions: 3500 x 65 ft. / 1067 x 20 m
Surface: asphalt, in fair condition
Weight bearing capacity: 
Single wheel: 18.5
Runway edge lights: medium intensity
RUNWAY 11  RUNWAY 29
Latitude: 41-27.025532N41-26.925918N
Longitude: 081-04.153235W081-03.398902W
Elevation: 1174.3 ft.1157.9 ft.
Traffic pattern: leftleft
Runway heading: 109 magnetic, 100 true289 magnetic, 280 true
Displaced threshold: 179 ft.no
Markings: nonprecision, in fair conditionnonprecision, in fair condition
Visual slope indicator: 2-light PAPI on left (3.00 degrees glide path)
Runway end identifier lights: yesyes
Touchdown point: yes, no lightsyes, no lights
Obstructions: 15 ft. tree, lighted, 333 ft. from runway, 80 ft. right of centerline, 8:1 slope to clear
+3-5 FT BRUSH, 0-200 FT DIST, 250 FT L; +2 FT GND, 55-100 FT DIST, 125 FT R.
4 ft. gnd, 201 ft. from runway
+72 FT TREES, 0-200 FT DIST, 210 FT R; +5 FT TRRN, 50-200 FT DIST, 180 FT L.

Airport Ownership and Management from official FAA records

Ownership: Publicly-owned
Owner: GEAUGA CO BOARD OF COMM
COURTHOUSE ANNEX, 231 MAIN ST
CHARDON, OH 44024-1263
Phone 440-285-2222
Manager: RICHARD BLAMER
15421 OLD STATE RD
MIDDLEFIELD, OH 44062-9260
Phone 440-632-1884
OR 216-509-8858.

Airport Operational Statistics

Aircraft based on the field: 36
Single engine airplanes: 29
Multi engine airplanes: 2
Gliders airplanes: 5
    
Aircraft operations: avg 35/day *
86% local general aviation
12% transient general aviation
2% air taxi
* for 12-month period ending 23 September 2020

Additional Remarks

PARL TWY EAST OF TEE HNGRS CLSD PERMLY.
EXTSV GLDR ACT ON & INVOF ARPT.
DEER, BIRDS, & OTR WILDLIFE ON & INVOF ARPT.
FOR CD CTC CLEVELAND APCH AT 216-352-2323.

Instrument Procedures

NOTE: All procedures below are presented as PDF files. If you need a reader for these files, you should download the free Adobe Reader.

NOT FOR NAVIGATION. Please procure official charts for flight.
FAA instrument procedures published for use from 25 February 2021 at 0901Z to 25 March 2021 at 0900Z.

 
IAPs - Instrument Approach Procedures
RNAV (GPS) RWY 11   download (217KB)
RNAV (GPS) RWY 29   download (216KB)
NOTE: Special Take-Off Minimums/Departure Procedures apply   download (164KB)

Other nearby airports with instrument procedures:

2G1 - Concord Airpark (14 nm NW)
KPOV - Portage County Airport (17 nm SW)
KCGF - Cuyahoga County Airport (20 nm W)
KLNN - Lake CountyExecutive Airport (20 nm NW)
KYNG - Youngstown-Warren Regional Airport (21 nm SE)
 
Loc | Ops | Rwys | IFR | FBO | Links
Com | Nav | Svcs | Stats | Notes
Area around 7G8 (Geauga County Airport)
 
Road maps at: MapQuest Bing Google
 
Aerial photo
WARNING: Photo may not be current or correct
Aerial photo of 7G8 (Geauga County Airport)
Do you have a better or more recent aerial photo of Geauga County Airport that you would like to share? If so, please send us your photo.

 
Sectional chart

 
Airport distance calculator
Flying to Geauga County Airport? Find the distance to fly.

From to 7G8

Sunrise and sunset
Times for 27-Feb-2021
 Local
(UTC-5)
 Zulu
(UTC)
Morning civil twilight06:3511:35
Sunrise07:0312:03
Sunset18:1123:11
Evening civil twilight18:3923:39

Current date and time
Zulu (UTC)  27-Feb-2021 16:06:50
Local (UTC-5)  27-Feb-2021 11:06:50
 
METAR
KPOV 
17nm SW 
271455Z AUTO 26008KT 10SM OVC005 05/04 A2997 RMK AO2 T00470036 PWINO
KLNN 
19nm NW 
271455Z AUTO 26012G18KT 10SM BKN014 OVC027 05/03 A2998 RMK AO1 60006 T00500025
KCGF 
19nm W 
271445Z 27012G18KT 10SM BKN008 OVC018 06/04 A2997
KYNG 
21nm SE 
271451Z 19007KT 9SM -RA BKN004 BKN012 OVC042 06/04 A2996 RMK AO2 SLP152 CIG RGD P0003 60013 T00560039 50019
KHZY 
26nm NE 
271453Z AUTO 26008KT 10SM OVC009 06/04 A2998 RMK AO2 RAE30 CIG 006V013 SLP158 P0001 60012 T00560044 51033
KBKL 
28nm W 
271453Z 26008KT 10SM BKN027 06/03 A2998 RMK AO2 SLP155 60003 T00560033 51034
KAKR 
31nm SW 
271454Z AUTO 25008KT 10SM OVC007 07/04 A2998 RMK AO2 SLP157 60004 T00670044 51028
TAF
KYNG 
21nm SE 
271120Z 2712/2812 17010KT 6SM -RA BR OVC015 FM271400 21008KT 5SM -RA BR OVC010 FM271500 23007KT P6SM OVC008 FM272000 27008KT P6SM BKN020 FM272200 28005KT P6SM BKN110 FM281100 13008KT P6SM OVC030
NOTAMs
Click for the latest NOTAMs
NOTAMs are issued by the DoD/FAA and will open in a separate window not controlled by AirNav.

 

 
 

FBO, Fuel Providers, and Aircraft Ground Support

  
 Business Name 
 
 Contact 
 
 Services / Description 
 
Fuel Prices
 
Comments
  
Geauga County Airport Authority 440-632-1884
no information available

If you are affiliated with Geauga County Airport Authority and would like to show here your services, contact info, web link, logo, and more, click here
100LL
AS $4.21 
 Updated 16-Feb-2021
 
   write
AS=Assisted/Self Service
Update Fuel Prices
 

Would you like to see your business listed on this page?

 If your business provides an interesting product or service to pilots, flight crews, aircraft, or users of the Geauga County Airport, you should consider listing it here.  To start the listing process, click on the button below
 
Add a business
 

Other Pages about Geauga County Airport

www.co.geauga.oh.us/...
 
Update a link
 
Copyright © AirNav, LLC. All rights reserved. Privacy Policy  Contact